createdAt,value
2023-04-03T00:00:52.999Z,1.70
2023-04-03T00:03:21.837Z,1.83
2023-04-03T00:05:50.107Z,2.17
2023-04-03T00:08:18.380Z,1.67
2023-04-03T00:10:46.593Z,2.13
2023-04-03T00:13:15.468Z,2.00
2023-04-03T00:15:43.726Z,1.60
2023-04-03T00:18:13.354Z,1.77
2023-04-03T00:20:41.527Z,2.13
2023-04-03T00:23:09.785Z,2.10
2023-04-03T00:25:38.276Z,2.13
2023-04-03T00:28:07.014Z,2.30
2023-04-03T00:30:36.144Z,2.00
2023-04-03T00:33:04.574Z,1.90
2023-04-03T00:35:34.206Z,1.80
2023-04-03T00:38:02.548Z,1.53
2023-04-03T00:40:35.805Z,2.20
2023-04-03T00:43:04.230Z,2.10
2023-04-03T00:45:35.062Z,1.60
2023-04-03T00:48:03.890Z,1.83
2023-04-03T00:50:33.472Z,1.80
2023-04-03T00:53:01.738Z,1.70
2023-04-03T00:55:30.154Z,1.70
2023-04-03T00:57:59.064Z,1.50
2023-04-03T01:00:27.364Z,1.83
2023-04-03T01:02:55.679Z,2.07
2023-04-03T01:05:24.336Z,2.00
2023-04-03T01:07:55.537Z,2.03
2023-04-03T01:10:24.249Z,2.23
2023-04-03T01:12:53.056Z,1.47
2023-04-03T01:15:23.714Z,1.70
2023-04-03T01:17:52.838Z,1.80
2023-04-03T01:20:37.621Z,1.50
2023-04-03T01:23:13.936Z,2.10
2023-04-03T01:25:43.109Z,2.03
2023-04-03T01:28:12.888Z,2.13
2023-04-03T01:30:45.456Z,1.90
2023-04-03T01:33:15.021Z,2.00
2023-04-03T01:35:43.294Z,1.97
2023-04-03T01:38:11.521Z,1.57
2023-04-03T01:40:40.717Z,1.70
2023-04-03T01:43:08.952Z,1.67
2023-04-03T01:45:37.178Z,2.10
2023-04-03T01:48:06.034Z,1.63
2023-04-03T01:50:35.900Z,2.00
2023-04-03T01:53:04.302Z,1.60
2023-04-03T01:55:32.541Z,1.83
2023-04-03T01:58:00.749Z,2.10
2023-04-03T02:00:28.955Z,1.93
2023-04-03T02:02:57.790Z,1.93
2023-04-03T02:05:26.097Z,1.70
2023-04-03T02:07:55.834Z,1.80
2023-04-03T02:10:26.454Z,1.97
2023-04-03T02:12:54.653Z,1.57
2023-04-03T02:15:22.853Z,1.70
2023-04-03T02:17:51.092Z,2.00
2023-04-03T02:20:19.306Z,1.60
2023-04-03T02:22:47.525Z,1.37
2023-04-03T02:25:18.630Z,1.60
2023-04-03T02:27:46.949Z,1.70
2023-04-03T02:30:15.665Z,1.77
2023-04-03T02:32:44.318Z,1.90
2023-04-03T02:35:12.821Z,2.00
2023-04-03T02:37:41.571Z,2.13
2023-04-03T02:40:10.144Z,1.73
2023-04-03T02:42:39.806Z,2.43
2023-04-03T02:45:08.694Z,2.10
2023-04-03T02:47:36.946Z,2.10
2023-04-03T02:50:05.320Z,1.90
2023-04-03T02:52:33.888Z,1.90
2023-04-03T02:55:02.073Z,2.00
2023-04-03T02:57:30.356Z,1.90
2023-04-03T03:00:00.157Z,2.00
2023-04-03T03:02:28.412Z,2.00
2023-04-03T03:04:56.719Z,1.73
2023-04-03T03:07:24.919Z,1.80
2023-04-03T03:09:53.096Z,1.80
2023-04-03T03:12:22.815Z,2.47
2023-04-03T03:14:51.418Z,1.50
2023-04-03T03:17:20.995Z,2.30
2023-04-03T03:19:49.221Z,1.80
2023-04-03T03:22:17.605Z,1.50
2023-04-03T03:24:45.834Z,1.87
2023-04-03T03:27:14.113Z,1.73
2023-04-03T03:29:42.295Z,2.20
2023-04-03T03:32:10.744Z,1.80
2023-04-03T03:34:40.370Z,2.10
2023-04-03T03:37:08.654Z,2.30
2023-04-03T03:39:36.897Z,2.53
2023-04-03T03:42:05.329Z,1.90
2023-04-03T03:44:33.575Z,1.93
2023-04-03T03:47:01.813Z,2.23
2023-04-03T03:49:30.060Z,2.40
2023-04-03T03:51:59.609Z,2.10
2023-04-03T03:54:27.819Z,2.10
2023-04-03T03:56:56.075Z,2.00
2023-04-03T03:59:24.338Z,2.30
2023-04-03T04:01:52.559Z,2.20
2023-04-03T04:04:21.183Z,1.90
2023-04-03T04:06:49.490Z,2.20
2023-04-03T04:09:19.383Z,2.23
2023-04-03T04:11:47.583Z,2.27
2023-04-03T04:14:16.210Z,2.00
2023-04-03T04:16:44.416Z,2.30
2023-04-03T04:19:12.625Z,2.20
2023-04-03T04:21:42.319Z,2.30
2023-04-03T04:24:15.686Z,2.13
2023-04-03T04:26:45.268Z,2.03
2023-04-03T04:29:13.560Z,2.20
2023-04-03T04:31:41.925Z,2.30
2023-04-03T04:34:10.424Z,2.00
2023-04-03T04:36:38.702Z,2.07
2023-04-03T04:39:07.053Z,2.20
2023-04-03T04:41:35.452Z,2.50
2023-04-03T04:44:05.401Z,2.30
2023-04-03T04:46:34.602Z,2.30
2023-04-03T04:49:02.881Z,2.73
2023-04-03T04:51:41.064Z,2.20
2023-04-03T04:54:13.050Z,2.57
2023-04-03T04:56:41.394Z,2.20
2023-04-03T04:59:10.964Z,2.37
2023-04-03T05:01:39.287Z,1.97
2023-04-03T05:04:07.492Z,2.13
2023-04-03T05:06:36.079Z,2.30
2023-04-03T05:09:04.387Z,2.10
2023-04-03T05:11:32.610Z,2.10
2023-04-03T05:14:00.852Z,2.73
2023-04-03T05:16:30.599Z,2.10
2023-04-03T05:18:58.881Z,2.20
2023-04-03T05:21:28.896Z,2.20
2023-04-03T05:23:57.182Z,3.10
2023-04-03T05:26:26.494Z,2.40
2023-04-03T05:28:54.992Z,2.70
2023-04-03T05:31:23.262Z,2.50
2023-04-03T05:33:52.880Z,2.70
2023-04-03T05:36:21.280Z,2.53
2023-04-03T05:38:49.712Z,2.43
2023-04-03T05:41:18.550Z,2.60
2023-04-03T05:43:46.874Z,3.00
2023-04-03T05:46:15.805Z,2.17
2023-04-03T05:48:44.059Z,2.30
2023-04-03T05:51:17.098Z,2.07
2023-04-03T05:53:46.402Z,2.23
2023-04-03T05:56:14.703Z,2.63
2023-04-03T05:58:42.970Z,2.40
2023-04-03T06:01:11.219Z,2.77
2023-04-03T06:03:41.016Z,2.30
2023-04-03T06:06:09.489Z,2.40
2023-04-03T06:08:39.449Z,2.70
2023-04-03T06:11:09.680Z,2.00
2023-04-03T06:13:40.349Z,2.40
2023-04-03T06:16:10.602Z,2.40
2023-04-03T06:18:39.201Z,2.40
2023-04-03T06:21:08.758Z,2.10
2023-04-03T06:23:37.908Z,2.87
2023-04-03T06:26:09.340Z,3.90
2023-04-03T06:28:37.678Z,3.73
2023-04-03T06:31:06.996Z,3.17
2023-04-03T06:33:35.421Z,2.47
2023-04-03T06:36:09.985Z,3.47
2023-04-03T06:38:38.243Z,2.70
2023-04-03T06:41:08.114Z,2.27
2023-04-03T06:43:37.100Z,2.30
2023-04-03T06:46:06.122Z,2.77
2023-04-03T06:48:34.593Z,3.00
2023-04-03T06:51:02.781Z,2.30
2023-04-03T06:53:31.037Z,2.50
2023-04-03T06:55:59.267Z,2.40
2023-04-03T06:58:28.918Z,2.50
2023-04-03T07:00:57.134Z,2.77
2023-04-03T07:03:25.380Z,2.70
2023-04-03T07:05:53.632Z,2.50
2023-04-03T07:08:22.322Z,1.90
2023-04-03T07:10:50.995Z,1.87
2023-04-03T07:13:19.258Z,10.47
2023-04-03T07:15:49.141Z,2.20
2023-04-03T07:18:17.874Z,1.80
2023-04-03T07:20:46.190Z,1.87
2023-04-03T07:23:14.559Z,2.10
2023-04-03T07:25:45.141Z,1.60
2023-04-03T07:28:14.137Z,1.80
2023-04-03T07:30:46.164Z,1.80
2023-04-03T07:33:16.694Z,1.70
2023-04-03T07:35:45.471Z,1.33
2023-04-03T07:38:13.936Z,1.60
2023-04-03T07:40:42.599Z,1.60
2023-04-03T07:43:10.851Z,1.60
2023-04-03T07:45:39.231Z,1.60
2023-04-03T07:48:08.136Z,1.43
2023-04-03T07:50:37.822Z,1.57
2023-04-03T07:53:06.749Z,1.27
2023-04-03T07:55:35.400Z,1.67
2023-04-03T07:58:04.255Z,1.20
2023-04-03T08:00:32.565Z,1.60
2023-04-03T08:03:00.952Z,1.60
2023-04-03T08:05:29.312Z,1.73
2023-04-03T08:07:59.151Z,1.60
2023-04-03T08:10:27.381Z,1.87
2023-04-03T08:12:55.549Z,1.50
2023-04-03T08:15:23.798Z,1.20
2023-04-03T08:17:52.800Z,1.00
2023-04-03T08:23:42.922Z,1.63
2023-04-03T08:29:29.767Z,2.03
2023-04-03T08:34:43.513Z,1.07
2023-04-03T08:37:11.921Z,1.10
2023-04-03T08:39:41.951Z,1.30
2023-04-03T08:42:16.520Z,0.77
2023-04-03T08:44:49.540Z,1.10
2023-04-03T08:47:25.338Z,1.40
2023-04-03T08:49:54.835Z,1.43
2023-04-03T08:52:37.210Z,1.10
2023-04-03T08:55:08.003Z,1.37
2023-04-03T08:57:37.589Z,0.90
2023-04-03T09:00:08.868Z,1.27
2023-04-03T09:02:42.960Z,1.30
2023-04-03T09:05:14.939Z,1.43
2023-04-03T09:07:46.792Z,1.27
2023-04-03T09:10:18.667Z,1.67
2023-04-03T09:12:49.290Z,1.00
2023-04-03T09:15:27.808Z,1.03
2023-04-03T09:18:07.109Z,1.40
2023-04-03T09:20:42.556Z,1.43
2023-04-03T09:23:24.112Z,1.23
2023-04-03T09:25:56.367Z,1.33
2023-04-03T09:28:24.702Z,1.10
2023-04-03T09:30:52.891Z,1.30
2023-04-03T09:33:21.525Z,1.30
2023-04-03T09:35:50.340Z,1.40
2023-04-03T09:38:20.074Z,1.10
2023-04-03T09:40:48.791Z,1.30
2023-04-03T09:43:25.818Z,2.23
2023-04-03T09:45:54.788Z,1.30
2023-04-03T09:48:24.335Z,1.60
2023-04-03T09:50:59.393Z,1.07
2023-04-03T09:53:36.275Z,1.17
2023-04-03T09:56:06.754Z,1.10
2023-04-03T09:58:49.673Z,0.97
2023-04-03T10:01:27.451Z,1.47
2023-04-03T10:04:06.433Z,1.80
2023-04-03T10:06:36.527Z,1.60
2023-04-03T10:09:06.448Z,1.10
2023-04-03T10:11:34.737Z,1.27
2023-04-03T10:14:07.904Z,1.10
2023-04-03T10:16:40.771Z,1.40
2023-04-03T10:19:16.785Z,1.40
2023-04-03T10:21:49.102Z,1.20
2023-04-03T10:24:20.221Z,0.93
2023-04-03T10:26:52.912Z,1.30
2023-04-03T10:29:28.838Z,1.87
2023-04-03T10:32:02.379Z,1.17
2023-04-03T10:34:32.556Z,1.40
2023-04-03T10:37:04.429Z,1.70
2023-04-03T10:39:35.938Z,1.27
2023-04-03T10:42:15.860Z,1.37
2023-04-03T10:44:53.013Z,1.10
2023-04-03T10:47:23.461Z,1.50
2023-04-03T10:49:59.973Z,1.10
2023-04-03T10:52:33.495Z,1.20
2023-04-03T10:55:06.643Z,0.97
2023-04-03T10:57:35.003Z,1.07
2023-04-03T11:00:09.779Z,1.60
2023-04-03T11:02:39.764Z,1.47
2023-04-03T11:05:10.725Z,1.13
2023-04-03T11:07:41.236Z,1.27
2023-04-03T11:10:17.960Z,1.20
2023-04-03T11:12:48.072Z,1.67
2023-04-03T11:15:19.106Z,1.27
2023-04-03T11:17:53.080Z,1.37
2023-04-03T11:20:28.435Z,1.43
2023-04-03T11:23:00.602Z,1.40
2023-04-03T11:25:30.132Z,1.50
2023-04-03T11:27:59.209Z,1.27
2023-04-03T11:30:30.976Z,1.47
2023-04-03T11:33:17.416Z,1.23
2023-04-03T11:35:47.379Z,1.37
2023-04-03T11:38:21.073Z,1.30
2023-04-03T11:40:49.736Z,1.23
2023-04-03T11:43:23.761Z,1.37
2023-04-03T11:46:01.853Z,1.50
2023-04-03T11:48:54.133Z,1.63
2023-04-03T11:51:42.526Z,1.90
2023-04-03T11:54:44.299Z,2.00
2023-04-03T11:57:46.321Z,1.83
2023-04-03T12:00:33.385Z,1.77
2023-04-03T12:03:03.201Z,1.50
2023-04-03T12:05:32.167Z,1.63
2023-04-03T12:08:19.257Z,1.90
2023-04-03T12:11:14.236Z,2.33
2023-04-03T12:13:46.492Z,1.80
2023-04-03T12:16:22.921Z,2.50
2023-04-03T12:19:04.825Z,1.67
2023-04-03T12:21:58.530Z,2.20
2023-04-03T12:24:27.714Z,1.53
2023-04-03T12:27:04.773Z,1.90
2023-04-03T12:29:36.856Z,1.50
2023-04-03T12:32:13.229Z,3.13
2023-04-03T12:34:47.654Z,1.40
2023-04-03T12:37:23.250Z,1.43
2023-04-03T12:39:54.951Z,2.17
2023-04-03T12:42:33.187Z,1.87
2023-04-03T12:45:04.922Z,1.50
2023-04-03T12:47:37.174Z,1.67
2023-04-03T12:50:08.261Z,1.97
2023-04-03T12:52:39.692Z,1.70
2023-04-03T12:55:11.186Z,1.80
2023-04-03T12:57:39.487Z,1.23
2023-04-03T13:00:21.406Z,1.93
2023-04-03T13:02:50.156Z,1.90
2023-04-03T13:05:21.421Z,1.70
2023-04-03T13:07:52.027Z,2.53
2023-04-03T13:10:21.082Z,1.70
2023-04-03T13:12:50.556Z,1.43
2023-04-03T13:15:20.455Z,1.80
2023-04-03T13:17:51.144Z,1.57
2023-04-03T13:20:23.505Z,1.90
2023-04-03T13:22:55.053Z,1.57
2023-04-03T13:25:24.805Z,1.60
2023-04-03T13:28:00.406Z,2.17
2023-04-03T13:30:40.377Z,2.27
2023-04-03T13:33:21.688Z,2.50
2023-04-03T13:35:57.866Z,2.97
2023-04-03T13:38:27.193Z,2.00
2023-04-03T13:40:56.797Z,1.50
2023-04-03T13:43:26.445Z,1.70
2023-04-03T13:45:59.108Z,1.67
2023-04-03T13:48:27.687Z,1.30
2023-04-03T13:50:59.994Z,1.70
2023-04-03T13:53:29.335Z,1.70
2023-04-03T13:56:02.802Z,1.70
2023-04-03T13:58:31.622Z,1.90
2023-04-03T14:01:11.455Z,1.37
2023-04-03T14:03:56.797Z,2.00
2023-04-03T14:06:26.968Z,1.70
2023-04-03T14:08:55.719Z,1.53
2023-04-03T14:11:25.413Z,1.70
2023-04-03T14:13:53.893Z,1.60
2023-04-03T14:16:23.994Z,1.57
2023-04-03T14:18:53.133Z,1.70
2023-04-03T14:21:22.806Z,1.53
2023-04-03T14:23:53.097Z,2.10
2023-04-03T14:26:23.060Z,1.63
2023-04-03T14:28:52.809Z,1.63
2023-04-03T14:31:21.819Z,1.40
2023-04-03T14:33:50.360Z,1.47
2023-04-03T14:36:20.353Z,1.53
2023-04-03T14:38:49.351Z,1.40
2023-04-03T14:41:20.101Z,1.57
2023-04-03T14:43:48.880Z,1.30
2023-04-03T14:46:19.964Z,1.90
2023-04-03T14:48:48.282Z,2.07
2023-04-03T14:51:17.592Z,1.60
2023-04-03T14:53:46.766Z,1.47
2023-04-03T14:56:16.109Z,1.10
2023-04-03T14:58:50.418Z,2.00
2023-04-03T15:01:19.084Z,1.83
2023-04-03T15:03:47.709Z,1.53
2023-04-03T15:06:17.157Z,1.20
2023-04-03T15:08:46.041Z,1.50
2023-04-03T15:11:14.320Z,1.83
2023-04-03T15:13:42.655Z,1.60
2023-04-03T15:16:17.344Z,1.40
2023-04-03T15:18:46.411Z,1.70
2023-04-03T15:21:14.947Z,1.80
2023-04-03T15:23:43.749Z,1.77
2023-04-03T15:26:12.814Z,1.73
2023-04-03T15:28:42.404Z,1.90
2023-04-03T15:31:10.823Z,1.70
2023-04-03T15:33:41.333Z,1.63
2023-04-03T15:36:29.205Z,1.80
2023-04-03T15:38:58.941Z,1.90
2023-04-03T15:41:27.253Z,1.53
2023-04-03T15:43:55.737Z,2.03
2023-04-03T15:46:24.303Z,1.50
2023-04-03T15:48:53.996Z,1.63
2023-04-03T15:51:22.265Z,1.80
2023-04-03T15:53:50.465Z,1.27
2023-04-03T15:56:18.786Z,1.97
2023-04-03T15:58:47.068Z,1.73
2023-04-03T16:01:15.374Z,1.80
2023-04-03T16:03:46.349Z,1.50
2023-04-03T16:06:16.509Z,1.87
2023-04-03T16:08:45.234Z,1.73
2023-04-03T16:11:16.116Z,1.50
2023-04-03T16:13:44.402Z,1.23
2023-04-03T16:16:12.844Z,1.53
2023-04-03T16:18:41.264Z,1.30
2023-04-03T16:21:10.561Z,1.70
2023-04-03T16:23:40.218Z,1.70
2023-04-03T16:26:08.575Z,1.73
2023-04-03T16:28:36.911Z,1.37
2023-04-03T16:31:05.538Z,1.23
2023-04-03T16:33:33.872Z,2.20
2023-04-03T16:36:02.560Z,1.80
2023-04-03T16:38:30.891Z,2.40
2023-04-03T16:41:05.266Z,1.60
2023-04-03T16:43:33.786Z,1.80
2023-04-03T16:46:03.419Z,1.57
2023-04-03T16:48:32.171Z,1.90
2023-04-03T16:51:00.568Z,1.30
2023-04-03T16:53:30.185Z,1.77
2023-04-03T16:56:01.639Z,1.80
2023-04-03T16:58:30.118Z,1.80
2023-04-03T17:00:58.473Z,2.37
2023-04-03T17:03:27.204Z,1.80
2023-04-03T17:05:55.548Z,1.67
2023-04-03T17:08:24.031Z,1.27
2023-04-03T17:13:38.185Z,1.60
2023-04-03T17:16:07.988Z,1.33
2023-04-03T17:18:36.570Z,1.90
2023-04-03T17:21:05.064Z,1.40
2023-04-03T17:23:35.569Z,2.00
2023-04-03T17:26:04.029Z,2.97
2023-04-03T17:28:32.372Z,2.83
2023-04-03T17:31:03.149Z,1.70
2023-04-03T17:33:32.250Z,1.93
2023-04-03T17:36:01.511Z,1.87
2023-04-03T17:38:30.062Z,1.20
2023-04-03T17:40:59.361Z,2.00
2023-04-03T17:43:27.967Z,1.70
2023-04-03T17:45:57.794Z,2.20
2023-04-03T17:48:27.902Z,2.10
2023-04-03T17:50:56.289Z,2.00
2023-04-03T17:53:25.130Z,1.47
2023-04-03T17:55:53.404Z,1.73
2023-04-03T17:58:21.781Z,1.60
2023-04-03T18:00:50.375Z,1.70
2023-04-03T18:03:18.790Z,1.80
2023-04-03T18:05:50.788Z,1.40
2023-04-03T18:08:19.148Z,1.90
2023-04-03T18:10:47.548Z,1.90
2023-04-03T18:13:16.150Z,1.70
2023-04-03T18:15:45.981Z,1.50
2023-04-03T18:18:14.812Z,2.00
2023-04-03T18:20:43.248Z,1.70
2023-04-03T18:23:13.587Z,1.70
2023-04-03T18:25:41.898Z,1.90
2023-04-03T18:28:10.260Z,1.80
2023-04-03T18:30:38.824Z,2.20
2023-04-03T18:33:07.846Z,1.90
2023-04-03T18:35:36.701Z,2.00
2023-04-03T18:38:05.264Z,1.80
2023-04-03T18:40:35.229Z,2.10
2023-04-03T18:43:03.993Z,1.93
2023-04-03T18:45:32.354Z,2.63
2023-04-03T18:48:00.753Z,2.57
2023-04-03T18:50:29.064Z,2.23
2023-04-03T18:52:57.472Z,2.10
2023-04-03T18:55:25.723Z,1.73
2023-04-03T18:57:55.456Z,2.10
2023-04-03T19:00:23.908Z,2.00
2023-04-03T19:02:52.434Z,2.23
2023-04-03T19:05:22.132Z,2.80
2023-04-03T19:07:51.133Z,2.83
2023-04-03T19:10:20.076Z,2.23
2023-04-03T19:12:49.136Z,2.67
2023-04-03T19:15:20.296Z,2.80
2023-04-03T19:17:48.702Z,2.80
2023-04-03T19:20:17.425Z,2.70
2023-04-03T19:22:46.382Z,4.00
2023-04-03T19:25:15.166Z,6.13
2023-04-03T19:27:43.508Z,6.47
2023-04-03T19:30:13.824Z,7.83
2023-04-03T19:32:43.512Z,6.50
2023-04-03T19:35:12.476Z,6.07
2023-04-03T19:37:41.059Z,3.60
2023-04-03T19:40:10.386Z,3.40
2023-04-03T19:42:42.754Z,3.87
2023-04-03T19:45:11.805Z,4.10
2023-04-03T19:47:42.396Z,3.40
2023-04-03T19:50:12.763Z,3.37
2023-04-03T19:52:41.178Z,2.90
2023-04-03T19:55:09.890Z,2.80
2023-04-03T19:57:38.235Z,2.90
2023-04-03T20:00:07.166Z,3.03
2023-04-03T20:02:35.518Z,2.67
2023-04-03T20:05:04.045Z,2.50
2023-04-03T20:07:33.857Z,2.53
2023-04-03T20:10:02.274Z,2.80
2023-04-03T20:12:31.232Z,2.50
2023-04-03T20:15:00.023Z,2.40
2023-04-03T20:17:28.394Z,2.60
2023-04-03T20:20:01.252Z,2.50
2023-04-03T20:22:29.588Z,2.60
2023-04-03T20:25:06.066Z,2.63
2023-04-03T20:27:35.027Z,2.63
2023-04-03T20:30:04.274Z,3.10
2023-04-03T20:32:33.740Z,2.80
2023-04-03T20:35:04.244Z,2.40
2023-04-03T20:37:33.044Z,2.50
2023-04-03T20:40:02.756Z,2.77
2023-04-03T20:42:31.112Z,2.30
2023-04-03T20:44:59.978Z,2.40
2023-04-03T20:47:28.342Z,2.80
2023-04-03T20:49:56.640Z,2.87
2023-04-03T20:52:25.034Z,3.00
2023-04-03T20:54:53.565Z,2.80
2023-04-03T20:57:23.215Z,3.17
2023-04-03T20:59:53.478Z,3.10
2023-04-03T21:02:21.676Z,2.63
2023-04-03T21:04:52.001Z,2.67
2023-04-03T21:07:38.914Z,2.40
2023-04-03T21:10:25.600Z,2.90
2023-04-03T21:13:13.026Z,2.63
2023-04-03T21:15:52.028Z,2.80
2023-04-03T21:18:38.060Z,2.63
2023-04-03T21:21:07.875Z,2.53
2023-04-03T21:23:36.143Z,2.60
2023-04-03T21:26:04.393Z,2.50
2023-04-03T21:28:32.588Z,2.53
2023-04-03T21:31:00.872Z,2.33
2023-04-03T21:33:29.098Z,2.30
2023-04-03T21:35:59.806Z,2.13
2023-04-03T21:38:29.961Z,2.40
2023-04-03T21:40:58.673Z,2.50
2023-04-03T21:43:26.964Z,2.30
2023-04-03T21:45:56.163Z,2.37
2023-04-03T21:48:24.448Z,2.40
2023-04-03T21:50:54.226Z,2.27
2023-04-03T21:53:22.574Z,2.27
2023-04-03T21:56:00.232Z,2.50
2023-04-03T21:58:32.337Z,2.23
2023-04-03T22:01:09.406Z,2.30
2023-04-03T22:03:37.637Z,2.20
2023-04-03T22:06:06.056Z,2.40
2023-04-03T22:08:34.359Z,2.13
2023-04-03T22:11:04.407Z,2.10
2023-04-03T22:13:32.689Z,2.20
2023-04-03T22:16:01.898Z,1.87
2023-04-03T22:18:30.312Z,2.50
2023-04-03T22:20:58.516Z,2.37
2023-04-03T22:23:27.762Z,2.20
2023-04-03T22:25:59.863Z,2.27
2023-04-03T22:28:29.504Z,2.60
2023-04-03T22:30:58.022Z,2.37
2023-04-03T22:33:26.272Z,2.30
2023-04-03T22:35:54.479Z,2.43
2023-04-03T22:38:23.080Z,2.10
2023-04-03T22:40:58.590Z,2.50
2023-04-03T22:43:27.321Z,2.30
2023-04-03T22:45:57.647Z,2.40
2023-04-03T22:48:25.998Z,2.60
2023-04-03T22:50:54.845Z,2.30
2023-04-03T22:53:23.189Z,2.60
2023-04-03T22:55:58.460Z,2.70
2023-04-03T22:58:27.488Z,2.93
2023-04-03T23:00:57.479Z,2.53
2023-04-03T23:03:26.171Z,2.57
2023-04-03T23:05:56.095Z,2.50
2023-04-03T23:08:24.597Z,2.70
2023-04-03T23:10:55.619Z,2.90
2023-04-03T23:13:23.914Z,2.50
2023-04-03T23:15:54.531Z,2.63
2023-04-03T23:18:24.267Z,2.77
2023-04-03T23:20:54.571Z,2.90
2023-04-03T23:23:23.443Z,2.50
2023-04-03T23:25:53.435Z,2.57
2023-04-03T23:28:22.015Z,2.53
2023-04-03T23:30:51.049Z,2.40
2023-04-03T23:33:19.281Z,2.73
2023-04-03T23:35:49.178Z,2.77
2023-04-03T23:38:17.813Z,2.73
2023-04-03T23:40:47.019Z,3.13
2023-04-03T23:43:15.554Z,3.07
2023-04-03T23:45:43.846Z,2.90
2023-04-03T23:48:12.186Z,2.93
2023-04-03T23:50:40.608Z,2.63
2023-04-03T23:53:10.607Z,2.80
2023-04-03T23:55:38.868Z,2.87
2023-04-03T23:58:07.077Z,2.93
